Terminal Aerodrome Forecast
Issued by NWS

Home | Current Version | Previous Version | Text Only | Print | Product List | Glossary On
Versions: 1 2 3 4 5 6 7 8 9 10 11 12 13 14 15 16 17
000
FTUS42 KTAE 172300
TAFVLD
TAF
KVLD 172338Z 1800/1824 09010KT P6SM OVC020
     FM180700 08009KT 5SM RA OVC008
     FM181200 06013G20KT 2SM +RA VCTS OVC007CB
     FM182300 10017G25KT 4SM TSRA OVC010CB=

USA.gov is the U.S. government's official web portal to all federal, state and local government web resources and services.